createdAt,value
2023-05-18T00:01:34.023Z,59.87
2023-05-18T00:04:02.222Z,59.38
2023-05-18T00:06:29.589Z,58.47
2023-05-18T00:08:56.995Z,57.92
2023-05-18T00:11:24.135Z,57.36
2023-05-18T00:13:51.166Z,56.71
2023-05-18T00:16:18.273Z,56.36
2023-05-18T00:18:46.341Z,56.16
2023-05-18T00:21:16.393Z,57.27
2023-05-18T00:23:49.729Z,57.95
2023-05-18T00:26:16.978Z,58.08
2023-05-18T00:28:44.939Z,57.57
2023-05-18T00:31:12.255Z,57.92
2023-05-18T00:33:41.305Z,58.04
2023-05-18T00:36:08.541Z,58.65
2023-05-18T00:38:37.021Z,58.02
2023-05-18T00:41:04.163Z,57.67
2023-05-18T00:43:31.198Z,57.69
2023-05-18T00:45:58.761Z,57.31
2023-05-18T00:48:26.163Z,57.08
2023-05-18T00:50:54.073Z,56.85
2023-05-18T00:53:21.125Z,56.95
2023-05-18T00:55:49.332Z,57.45
2023-05-18T00:58:16.779Z,58.59
2023-05-18T01:00:44.240Z,58.66
2023-05-18T01:03:12.208Z,59.47
2023-05-18T01:05:39.389Z,60.52
2023-05-18T01:08:07.163Z,61.22
2023-05-18T01:10:38.247Z,61.91
2023-05-18T01:13:16.552Z,60.73
2023-05-18T01:15:44.916Z,59.71
2023-05-18T01:19:01.300Z,59.03
2023-05-18T01:21:51.881Z,58.67
2023-05-18T01:24:36.308Z,58.33
2023-05-18T01:27:04.810Z,59.82
2023-05-18T01:29:31.941Z,59.34
2023-05-18T01:32:04.031Z,60.32
2023-05-18T01:34:31.229Z,60.34
2023-05-18T01:36:59.867Z,59.78
2023-05-18T01:39:29.293Z,59.42
2023-05-18T01:41:59.839Z,59.13
2023-05-18T01:44:40.569Z,59.44
2023-05-18T01:47:16.246Z,59.31
2023-05-18T01:49:48.558Z,59.11
2023-05-18T01:52:25.124Z,58.81
2023-05-18T01:54:54.673Z,59.21
2023-05-18T01:57:24.219Z,58.94
2023-05-18T01:59:51.730Z,58.72
2023-05-18T02:02:18.993Z,58.60
2023-05-18T02:04:46.242Z,58.70
2023-05-18T02:07:14.387Z,58.54
2023-05-18T02:09:44.373Z,58.40
2023-05-18T02:12:11.838Z,58.49
2023-05-18T02:14:39.467Z,58.43
2023-05-18T02:17:07.834Z,58.53
2023-05-18T02:19:38.318Z,58.24
2023-05-18T02:22:07.116Z,58.63
2023-05-18T02:24:37.612Z,58.48
2023-05-18T02:27:05.977Z,58.07
2023-05-18T02:29:32.969Z,57.92
2023-05-18T02:32:00.125Z,58.07
2023-05-18T02:34:27.660Z,56.99
2023-05-18T02:36:58.215Z,56.56
2023-05-18T02:39:25.346Z,56.25
2023-05-18T02:41:52.364Z,55.89
2023-05-18T02:44:19.915Z,56.02
2023-05-18T02:46:48.967Z,55.93
2023-05-18T02:49:16.396Z,56.11
2023-05-18T02:51:43.538Z,56.26
2023-05-18T02:54:11.802Z,55.53
2023-05-18T02:56:41.915Z,55.82
2023-05-18T02:59:18.300Z,56.25
2023-05-18T03:01:45.573Z,56.30
2023-05-18T03:04:14.104Z,55.54
2023-05-18T03:06:47.833Z,55.03
2023-05-18T03:09:16.722Z,56.50
2023-05-18T03:11:45.965Z,56.62
2023-05-18T03:14:13.244Z,55.70
2023-05-18T03:16:40.657Z,55.13
2023-05-18T03:19:15.455Z,54.66
2023-05-18T03:21:43.123Z,54.26
2023-05-18T03:24:12.243Z,53.92
2023-05-18T03:26:44.401Z,54.13
2023-05-18T03:29:13.675Z,53.72
2023-05-18T03:31:41.624Z,53.40
2023-05-18T03:34:10.674Z,53.49
2023-05-18T03:36:42.623Z,53.35
2023-05-18T03:39:10.774Z,53.43
2023-05-18T03:41:38.307Z,53.14
2023-05-18T03:44:09.685Z,53.34
2023-05-18T03:46:36.937Z,52.83
2023-05-18T03:49:07.085Z,52.58
2023-05-18T03:51:39.288Z,52.78
2023-05-18T03:54:06.400Z,52.37
2023-05-18T03:56:33.649Z,52.11
2023-05-18T03:59:03.611Z,51.16
2023-05-18T04:01:32.952Z,51.50
2023-05-18T04:04:01.837Z,50.52
2023-05-18T04:06:32.718Z,50.61
2023-05-18T04:09:07.183Z,51.08
2023-05-18T04:11:38.527Z,50.69
2023-05-18T04:14:08.844Z,50.46
2023-05-18T04:16:36.074Z,50.40
2023-05-18T04:19:08.142Z,50.13
2023-05-18T04:21:36.462Z,49.72
2023-05-18T04:24:07.393Z,49.87
2023-05-18T04:26:36.759Z,49.80
2023-05-18T04:29:04.240Z,50.13
2023-05-18T04:31:34.830Z,49.23
2023-05-18T04:34:01.870Z,48.25
2023-05-18T04:36:31.996Z,47.65
2023-05-18T04:39:07.994Z,47.86
2023-05-18T04:41:36.034Z,48.16
2023-05-18T04:44:05.353Z,47.60
2023-05-18T04:47:01.791Z,47.66
2023-05-18T04:49:29.534Z,47.62
2023-05-18T04:52:02.813Z,46.46
2023-05-18T04:54:31.043Z,46.15
2023-05-18T04:56:59.309Z,46.49
2023-05-18T04:59:37.498Z,46.17
2023-05-18T05:02:05.859Z,45.63
2023-05-18T05:04:36.123Z,45.54
2023-05-18T05:07:05.811Z,44.32
2023-05-18T05:09:36.271Z,43.77
2023-05-18T05:12:07.438Z,43.77
2023-05-18T05:14:39.933Z,43.87
2023-05-18T05:17:07.226Z,43.51
2023-05-18T05:19:36.603Z,43.31
2023-05-18T05:22:03.853Z,43.23
2023-05-18T05:24:31.302Z,43.26
2023-05-18T05:26:59.952Z,42.14
2023-05-18T05:29:29.299Z,42.31
2023-05-18T05:31:58.868Z,42.17
2023-05-18T05:34:26.085Z,41.69
2023-05-18T05:36:54.121Z,41.45
2023-05-18T05:39:23.714Z,41.63
2023-05-18T05:41:53.696Z,41.79
2023-05-18T05:44:20.920Z,41.61
2023-05-18T05:46:49.375Z,40.98
2023-05-18T05:49:19.476Z,40.86
2023-05-18T05:51:46.784Z,40.07
2023-05-18T05:54:14.922Z,40.45
2023-05-18T05:56:41.995Z,40.75
2023-05-18T05:59:12.743Z,39.95
2023-05-18T06:01:40.080Z,40.35
2023-05-18T06:04:10.906Z,40.34
2023-05-18T06:06:57.500Z,40.07
2023-05-18T06:09:27.451Z,40.08
2023-05-18T06:11:55.508Z,39.91
2023-05-18T06:14:24.364Z,40.31
2023-05-18T06:16:52.218Z,39.44
2023-05-18T06:19:19.966Z,38.38
2023-05-18T06:21:47.290Z,38.72
2023-05-18T06:24:17.719Z,38.88
2023-05-18T06:27:14.203Z,37.58
2023-05-18T06:29:55.061Z,38.14
2023-05-18T06:32:40.746Z,38.78
2023-05-18T06:35:16.160Z,38.45
2023-05-18T06:37:44.718Z,36.39
2023-05-18T06:40:13.440Z,35.76
2023-05-18T06:42:40.565Z,35.42
2023-05-18T06:45:35.237Z,34.98
2023-05-18T06:48:19.066Z,35.91
2023-05-18T06:50:49.078Z,36.18
2023-05-18T06:53:16.412Z,35.67
2023-05-18T06:55:45.761Z,34.74
2023-05-18T06:58:13.288Z,34.32
2023-05-18T07:00:44.004Z,34.61
2023-05-18T07:03:11.538Z,33.83
2023-05-18T07:05:43.783Z,33.29
2023-05-18T07:08:10.896Z,31.44
2023-05-18T07:10:40.470Z,31.72
2023-05-18T07:13:07.605Z,31.29
2023-05-18T07:15:34.876Z,30.04
2023-05-18T07:18:04.358Z,29.50
2023-05-18T07:20:34.990Z,29.94
2023-05-18T07:23:03.143Z,30.27
2023-05-18T07:25:30.478Z,30.83
2023-05-18T07:27:58.841Z,30.75
2023-05-18T07:30:28.290Z,30.33
2023-05-18T07:33:15.582Z,30.31
2023-05-18T07:35:45.980Z,29.89
2023-05-18T07:38:13.586Z,29.73
2023-05-18T07:40:45.448Z,30.72
2023-05-18T07:43:31.305Z,29.58
2023-05-18T07:45:58.517Z,29.37
2023-05-18T07:48:25.782Z,29.91
2023-05-18T07:51:12.224Z,28.95
2023-05-18T07:53:42.251Z,28.23
2023-05-18T07:56:09.488Z,28.36
2023-05-18T07:58:37.582Z,28.48
2023-05-18T08:01:04.708Z,28.94
2023-05-18T08:03:33.150Z,28.10
2023-05-18T08:06:00.915Z,27.28
2023-05-18T08:08:29.073Z,27.69
2023-05-18T08:10:59.786Z,26.78
2023-05-18T08:13:26.894Z,26.81
2023-05-18T08:16:12.674Z,26.52
2023-05-18T08:18:40.552Z,26.37
2023-05-18T08:21:10.199Z,25.68
2023-05-18T08:23:39.589Z,25.20
2023-05-18T08:26:08.406Z,25.03
2023-05-18T08:28:35.525Z,25.41
2023-05-18T08:31:02.635Z,25.37
2023-05-18T08:33:29.778Z,25.00
2023-05-18T08:35:56.795Z,26.38
2023-05-18T08:38:23.978Z,25.90
2023-05-18T08:40:59.919Z,25.53
2023-05-18T08:43:33.488Z,25.31
2023-05-18T08:46:25.866Z,25.05
2023-05-18T08:48:54.026Z,25.55
2023-05-18T08:51:22.162Z,25.12
2023-05-18T08:53:53.990Z,24.65
2023-05-18T08:56:24.755Z,24.77
2023-05-18T08:58:55.110Z,24.46
2023-05-18T09:01:28.853Z,23.93
2023-05-18T09:03:58.284Z,22.80
2023-05-18T09:06:26.323Z,22.23
2023-05-18T09:08:54.674Z,21.74
2023-05-18T09:11:26.905Z,22.21
2023-05-18T09:13:55.196Z,22.77
2023-05-18T09:16:22.503Z,22.83
2023-05-18T09:18:49.778Z,23.44
2023-05-18T09:21:16.983Z,22.76
2023-05-18T09:23:45.010Z,22.01
2023-05-18T09:26:13.524Z,20.69
2023-05-18T09:28:42.358Z,21.10
2023-05-18T09:31:19.460Z,21.42
2023-05-18T09:33:47.571Z,20.39
2023-05-18T09:36:16.689Z,20.78
2023-05-18T09:38:48.231Z,20.76
2023-05-18T09:41:20.387Z,20.52
2023-05-18T09:50:37.613Z,24.44
2023-05-18T09:53:25.050Z,24.06
2023-05-18T09:55:52.218Z,24.46
2023-05-18T09:58:24.727Z,24.31
2023-05-18T10:00:57.141Z,23.16
2023-05-18T10:03:25.311Z,21.77
2023-05-18T10:05:52.391Z,21.18
2023-05-18T10:08:25.961Z,20.76
2023-05-18T10:10:53.093Z,20.96
2023-05-18T10:13:26.519Z,22.25
2023-05-18T10:16:00.520Z,23.30
2023-05-18T10:18:32.419Z,24.02
2023-05-18T10:21:01.924Z,21.53
2023-05-18T10:23:32.860Z,20.72
2023-05-18T10:26:00.553Z,19.68
2023-05-18T10:28:41.545Z,19.75
2023-05-18T10:31:16.226Z,19.46
2023-05-18T10:33:46.530Z,20.13
2023-05-18T10:36:13.661Z,20.38
2023-05-18T10:38:45.516Z,20.32
2023-05-18T10:41:16.326Z,20.67
2023-05-18T10:43:45.621Z,21.03
2023-05-18T10:46:16.192Z,20.08
2023-05-18T10:51:14.079Z,19.14
2023-05-18T10:53:43.980Z,18.45
2023-05-18T10:56:11.420Z,18.53
2023-05-18T10:58:39.025Z,18.92
2023-05-18T11:01:09.445Z,19.69
2023-05-18T11:03:38.755Z,19.58
2023-05-18T11:06:09.101Z,18.60
2023-05-18T11:08:49.526Z,18.14
2023-05-18T11:11:19.148Z,17.95
2023-05-18T11:13:51.553Z,17.18
2023-05-18T11:16:20.050Z,16.40
2023-05-18T11:18:52.586Z,15.46
2023-05-18T11:24:31.610Z,15.72
2023-05-18T11:27:03.781Z,15.78
2023-05-18T11:29:32.826Z,15.60
2023-05-18T11:32:02.757Z,16.47
2023-05-18T11:34:42.406Z,17.62
2023-05-18T11:37:10.453Z,17.18
2023-05-18T11:39:44.697Z,16.50
2023-05-18T11:42:15.190Z,16.02
2023-05-18T11:44:42.023Z,15.04
2023-05-18T11:47:34.089Z,15.33
2023-05-18T11:50:01.033Z,15.19
2023-05-18T11:52:27.917Z,14.85
2023-05-18T11:54:55.767Z,14.31
2023-05-18T11:57:35.250Z,14.79
2023-05-18T12:00:12.377Z,15.94
2023-05-18T12:02:41.928Z,16.13
2023-05-18T12:05:09.713Z,16.94
2023-05-18T12:07:36.783Z,18.35
2023-05-18T12:10:04.484Z,19.88
2023-05-18T12:12:31.822Z,19.44
2023-05-18T12:14:59.974Z,18.58
2023-05-18T12:17:40.842Z,19.44
2023-05-18T12:20:08.962Z,20.28
2023-05-18T12:22:37.158Z,20.81
2023-05-18T12:25:04.099Z,20.88
2023-05-18T12:27:30.923Z,20.75
2023-05-18T12:29:57.848Z,21.29
2023-05-18T12:32:24.684Z,19.44
2023-05-18T12:34:52.667Z,17.45
2023-05-18T12:37:23.890Z,16.42
2023-05-18T12:39:54.575Z,15.79
2023-05-18T12:42:21.471Z,14.41
2023-05-18T12:44:48.327Z,15.16
2023-05-18T12:47:15.262Z,15.72
2023-05-18T12:49:48.580Z,16.13
2023-05-18T12:52:16.810Z,16.27
2023-05-18T12:54:55.933Z,16.04
2023-05-18T12:57:25.746Z,15.58
2023-05-18T12:59:53.881Z,15.28
2023-05-18T13:02:31.319Z,15.07
2023-05-18T13:05:08.934Z,14.71
2023-05-18T13:07:36.420Z,15.24
2023-05-18T13:10:13.658Z,15.20
2023-05-18T13:12:43.614Z,15.49
2023-05-18T13:15:14.882Z,15.21
2023-05-18T13:18:03.068Z,15.06
2023-05-18T13:20:51.113Z,15.07
2023-05-18T13:23:21.929Z,17.47
2023-05-18T13:25:48.868Z,20.30
2023-05-18T13:28:26.303Z,20.84
2023-05-18T13:30:53.404Z,20.84
2023-05-18T13:33:20.315Z,18.66
2023-05-18T13:35:48.699Z,16.87
2023-05-18T13:38:16.097Z,15.78
2023-05-18T13:40:42.886Z,14.90
2023-05-18T13:43:12.030Z,14.42
2023-05-18T13:45:40.366Z,14.04
2023-05-18T13:48:11.943Z,14.26
2023-05-18T13:50:39.690Z,13.96
2023-05-18T13:53:07.122Z,15.05
2023-05-18T13:55:34.357Z,15.35
2023-05-18T13:58:01.252Z,15.88
2023-05-18T14:00:28.611Z,15.48
2023-05-18T14:02:56.591Z,15.20
2023-05-18T14:05:23.804Z,15.20
2023-05-18T14:07:52.628Z,17.00
2023-05-18T14:10:20.126Z,16.36
2023-05-18T14:12:47.107Z,15.92
2023-05-18T14:15:14.283Z,15.15
2023-05-18T14:17:41.478Z,15.20
2023-05-18T14:20:09.603Z,15.44
2023-05-18T14:22:41.824Z,15.57
2023-05-18T14:25:09.232Z,15.82
2023-05-18T14:27:36.066Z,18.17
2023-05-18T14:30:02.876Z,19.20
2023-05-18T14:32:29.973Z,20.26
2023-05-18T14:34:58.264Z,20.22
2023-05-18T14:37:25.249Z,18.78
2023-05-18T14:39:52.062Z,18.42
2023-05-18T14:42:18.889Z,17.97
2023-05-18T14:44:47.926Z,17.17
2023-05-18T14:47:14.854Z,17.33
2023-05-18T14:49:44.433Z,17.28
2023-05-18T14:52:11.461Z,16.77
2023-05-18T14:54:38.288Z,16.38
2023-05-18T14:57:05.483Z,16.63
2023-05-18T14:59:32.302Z,16.71
2023-05-18T15:01:59.690Z,17.60
2023-05-18T15:04:26.586Z,17.53
2023-05-18T15:06:53.523Z,17.08
2023-05-18T15:09:20.556Z,18.10
2023-05-18T15:11:47.460Z,19.56
2023-05-18T15:14:14.408Z,21.17
2023-05-18T15:16:41.583Z,22.49
2023-05-18T15:19:08.649Z,22.71
2023-05-18T15:21:35.511Z,22.84
2023-05-18T15:24:02.380Z,23.83
2023-05-18T15:26:29.449Z,24.85
2023-05-18T15:28:56.601Z,27.07
2023-05-18T15:31:23.627Z,28.59
2023-05-18T15:33:55.798Z,29.51
2023-05-18T15:36:22.599Z,29.80
2023-05-18T15:38:49.683Z,30.66
2023-05-18T15:41:23.359Z,30.39
2023-05-18T15:43:55.758Z,30.88
2023-05-18T15:46:38.166Z,32.02
2023-05-18T15:49:05.279Z,32.63
2023-05-18T15:51:32.201Z,33.49
2023-05-18T15:53:59.197Z,33.67
2023-05-18T15:56:26.229Z,33.95
2023-05-18T15:58:53.256Z,34.49
2023-05-18T16:01:20.541Z,34.59
2023-05-18T16:03:47.638Z,34.72
2023-05-18T16:06:14.633Z,34.92
2023-05-18T16:08:41.636Z,35.04
2023-05-18T16:11:08.488Z,35.41
2023-05-18T16:13:35.332Z,35.87
2023-05-18T16:16:03.208Z,36.30
2023-05-18T16:18:31.850Z,36.41
2023-05-18T16:20:58.925Z,36.74
2023-05-18T16:23:28.469Z,37.65
2023-05-18T16:29:56.279Z,38.37
2023-05-18T16:32:24.742Z,38.78
2023-05-18T16:43:53.137Z,40.21
2023-05-18T16:46:20.618Z,40.30
2023-05-18T16:48:47.475Z,40.74
2023-05-18T16:51:14.722Z,41.41
2023-05-18T16:53:42.825Z,41.85
2023-05-18T16:56:19.892Z,42.50
2023-05-18T16:58:52.405Z,43.03
2023-05-18T17:01:43.296Z,43.67
2023-05-18T17:04:10.683Z,44.66
2023-05-18T17:06:38.029Z,45.27
2023-05-18T17:09:06.449Z,45.60
2023-05-18T17:11:33.504Z,46.06
2023-05-18T17:14:01.666Z,47.34
2023-05-18T17:16:30.377Z,47.78
2023-05-18T17:18:57.879Z,48.09
2023-05-18T17:21:26.766Z,48.37
2023-05-18T17:23:53.727Z,48.21
2023-05-18T17:26:21.600Z,48.54
2023-05-18T17:29:17.121Z,49.08
2023-05-18T17:31:45.964Z,49.32
2023-05-18T17:37:17.270Z,50.13
2023-05-18T17:39:44.114Z,50.40
2023-05-18T17:42:10.958Z,50.55
2023-05-18T17:44:40.508Z,51.06
2023-05-18T17:47:13.775Z,51.20
2023-05-18T17:49:42.469Z,51.32
2023-05-18T17:52:09.337Z,51.19
2023-05-18T17:54:36.198Z,50.93
2023-05-18T17:57:03.012Z,51.84
2023-05-18T17:59:29.831Z,52.35
2023-05-18T18:02:00.167Z,53.77
2023-05-18T18:04:27.107Z,54.19
2023-05-18T18:06:58.744Z,54.92
2023-05-18T18:09:25.849Z,55.10
2023-05-18T18:11:52.746Z,55.04
2023-05-18T18:14:19.703Z,56.21
2023-05-18T18:16:50.390Z,56.23
2023-05-18T18:19:17.430Z,56.98
2023-05-18T18:21:44.452Z,56.88
2023-05-18T18:24:11.491Z,57.20
2023-05-18T18:26:40.646Z,58.00
2023-05-18T18:29:10.555Z,58.12
2023-05-18T18:31:40.686Z,58.23
2023-05-18T18:34:07.881Z,58.57
2023-05-18T18:36:34.747Z,58.91
2023-05-18T18:45:08.460Z,59.85
2023-05-18T18:47:36.763Z,60.13
2023-05-18T18:50:05.386Z,60.73
2023-05-18T18:52:32.664Z,60.63
2023-05-18T18:54:59.706Z,60.64
2023-05-18T18:57:26.503Z,61.08
2023-05-18T18:59:53.747Z,61.26
2023-05-18T19:02:21.466Z,61.72
2023-05-18T19:04:48.437Z,61.55
2023-05-18T19:07:15.289Z,61.50
2023-05-18T19:09:46.140Z,62.14
2023-05-18T19:12:13.205Z,62.03
2023-05-18T19:14:40.153Z,62.68
2023-05-18T19:17:07.127Z,62.72
2023-05-18T19:19:34.133Z,62.66
2023-05-18T19:22:01.185Z,62.75
2023-05-18T19:24:28.376Z,62.60
2023-05-18T19:26:55.584Z,62.92
2023-05-18T19:29:25.148Z,62.97
2023-05-18T19:31:55.436Z,63.33
2023-05-18T19:34:22.629Z,63.37
2023-05-18T19:36:53.089Z,63.76
2023-05-18T19:39:20.076Z,63.65
2023-05-18T19:41:47.080Z,63.62
2023-05-18T19:44:14.680Z,63.73
2023-05-18T19:46:41.691Z,63.69
2023-05-18T19:49:10.281Z,64.22
2023-05-18T19:51:38.615Z,64.30
2023-05-18T19:54:08.377Z,64.32
2023-05-18T19:56:37.768Z,64.42
2023-05-18T19:59:05.040Z,64.55
2023-05-18T20:01:32.473Z,64.47
2023-05-18T20:04:00.323Z,64.78
2023-05-18T20:06:32.032Z,64.90
2023-05-18T20:08:58.950Z,65.03
2023-05-18T20:11:27.117Z,64.99
2023-05-18T20:13:54.002Z,64.90
2023-05-18T20:19:18.153Z,65.81
2023-05-18T20:21:47.742Z,66.12
2023-05-18T20:24:14.805Z,65.96
2023-05-18T20:26:42.193Z,66.19
2023-05-18T20:29:09.163Z,66.99
2023-05-18T20:31:36.024Z,67.05
2023-05-18T20:34:02.913Z,67.45
2023-05-18T20:36:29.880Z,67.57
2023-05-18T20:38:56.794Z,67.89
2023-05-18T20:41:23.701Z,68.41
2023-05-18T20:44:04.343Z,68.75
2023-05-18T20:46:34.073Z,68.99
2023-05-18T20:49:01.399Z,69.60
2023-05-18T20:51:28.434Z,69.94
2023-05-18T20:53:55.588Z,69.89
2023-05-18T20:56:26.905Z,70.40
2023-05-18T20:58:54.645Z,70.65
2023-05-18T21:01:21.649Z,70.59
2023-05-18T21:03:50.377Z,71.06
2023-05-18T21:06:17.334Z,71.44
2023-05-18T21:08:45.457Z,71.26
2023-05-18T21:11:13.679Z,71.39
2023-05-18T21:13:42.947Z,72.11
2023-05-18T21:16:10.905Z,72.23
2023-05-18T21:18:37.938Z,72.34
2023-05-18T21:21:04.862Z,72.37
2023-05-18T21:23:31.736Z,72.88
2023-05-18T21:25:58.612Z,73.38
2023-05-18T21:28:25.569Z,73.78
2023-05-18T21:30:52.810Z,73.76
2023-05-18T21:33:19.820Z,74.82
2023-05-18T21:35:46.651Z,75.11
2023-05-18T21:38:13.497Z,76.01
2023-05-18T21:40:43.522Z,75.86
2023-05-18T21:43:10.893Z,76.05
2023-05-18T21:45:37.818Z,76.18
2023-05-18T21:48:05.042Z,77.20
2023-05-18T21:50:35.122Z,77.20
2023-05-18T21:53:03.496Z,77.68
2023-05-18T21:55:31.289Z,78.11
2023-05-18T21:57:58.153Z,77.89
2023-05-18T22:00:24.992Z,78.06
2023-05-18T22:02:51.969Z,78.33
2023-05-18T22:05:18.940Z,78.22
2023-05-18T22:07:46.094Z,78.22
2023-05-18T22:10:12.921Z,78.32
2023-05-18T22:12:41.202Z,78.75
2023-05-18T22:15:08.828Z,79.07
2023-05-18T22:17:36.813Z,79.32
2023-05-18T22:20:06.028Z,79.30
2023-05-18T22:22:32.862Z,79.18
2023-05-18T22:24:59.812Z,79.58
2023-05-18T22:27:26.823Z,79.73
2023-05-18T22:29:53.667Z,79.42
2023-05-18T22:32:20.897Z,79.03
2023-05-18T22:34:47.817Z,78.85
2023-05-18T22:37:14.610Z,78.87
2023-05-18T22:39:41.473Z,78.48
2023-05-18T22:42:08.390Z,78.23
2023-05-18T22:44:35.144Z,78.18
2023-05-18T22:47:04.690Z,77.89
2023-05-18T22:49:31.575Z,77.50
2023-05-18T22:51:58.423Z,77.43
2023-05-18T22:54:25.164Z,77.17
2023-05-18T22:56:51.986Z,77.17
2023-05-18T22:59:20.372Z,77.22
2023-05-18T23:01:52.746Z,77.13
2023-05-18T23:04:19.810Z,77.39
2023-05-18T23:06:49.590Z,77.95
2023-05-18T23:09:17.093Z,77.97
2023-05-18T23:11:48.652Z,77.85
2023-05-18T23:14:15.528Z,77.91
2023-05-18T23:16:43.096Z,78.18
2023-05-18T23:19:12.484Z,78.50
2023-05-18T23:21:39.974Z,78.42
2023-05-18T23:24:08.000Z,78.63
2023-05-18T23:26:34.761Z,78.47
2023-05-18T23:29:02.019Z,78.70
2023-05-18T23:31:28.978Z,78.64
2023-05-18T23:33:56.114Z,78.73
2023-05-18T23:36:22.994Z,78.65
2023-05-18T23:38:49.999Z,78.84
2023-05-18T23:41:16.949Z,78.90
2023-05-18T23:43:43.846Z,78.78
2023-05-18T23:46:10.997Z,78.65
2023-05-18T23:48:38.494Z,78.40
2023-05-18T23:51:05.892Z,78.32
2023-05-18T23:53:32.804Z,78.31
2023-05-18T23:55:59.805Z,78.42
2023-05-18T23:58:30.429Z,78.59
